createdAt,value
2023-04-10T00:01:25.632Z,31.42
2023-04-10T00:04:03.737Z,36.58
2023-04-10T00:06:36.752Z,36.83
2023-04-10T00:09:06.766Z,35.50
2023-04-10T00:11:34.732Z,37.22
2023-04-10T00:14:03.722Z,43.92
2023-04-10T00:16:34.253Z,47.50
2023-04-10T00:19:02.570Z,43.30
2023-04-10T00:21:42.747Z,47.67
2023-04-10T00:24:13.139Z,56.97
2023-04-10T00:26:48.539Z,50.17
2023-04-10T00:29:17.068Z,50.50
2023-04-10T00:31:55.184Z,50.13
2023-04-10T00:34:26.393Z,56.65
2023-04-10T00:36:55.558Z,55.13
2023-04-10T00:39:23.708Z,59.72
2023-04-10T00:41:51.712Z,61.30
2023-04-10T00:44:19.784Z,62.17
2023-04-10T00:46:48.195Z,60.28
2023-04-10T00:49:18.627Z,65.18
2023-04-10T00:51:47.185Z,62.83
2023-04-10T00:54:17.708Z,55.47
2023-04-10T00:56:48.170Z,65.72
2023-04-10T00:59:16.757Z,64.82
2023-04-10T01:01:45.431Z,61.33
2023-04-10T01:04:16.538Z,64.10
2023-04-10T01:06:59.125Z,68.10
2023-04-10T01:09:56.991Z,68.63
2023-04-10T01:12:28.214Z,64.90
2023-04-10T01:15:04.694Z,73.55
2023-04-10T01:17:36.873Z,69.78
2023-04-10T01:20:13.947Z,67.25
2023-04-10T01:22:59.175Z,74.05
2023-04-10T01:25:36.366Z,78.85
2023-04-10T01:28:46.459Z,78.93
2023-04-10T01:31:21.993Z,83.70
2023-04-10T01:33:54.692Z,77.18
2023-04-10T01:36:28.459Z,70.88
2023-04-10T01:38:57.290Z,77.45
2023-04-10T01:41:26.911Z,75.85
2023-04-10T01:43:55.954Z,69.55
2023-04-10T01:46:24.573Z,71.30
2023-04-10T01:48:53.522Z,69.28
2023-04-10T01:51:21.981Z,69.82
2023-04-10T01:53:50.374Z,75.35
2023-04-10T01:56:24.325Z,70.25
2023-04-10T01:58:53.909Z,71.95
2023-04-10T02:01:29.546Z,74.68
2023-04-10T02:04:00.520Z,86.15
2023-04-10T02:06:51.913Z,111.25
2023-04-10T02:09:27.476Z,103.32
2023-04-10T02:12:08.240Z,110.57
2023-04-10T02:14:38.895Z,87.38
2023-04-10T02:17:09.645Z,87.70
2023-04-10T02:19:38.933Z,87.40
2023-04-10T02:22:06.882Z,80.63
2023-04-10T02:24:35.886Z,82.93
2023-04-10T02:27:03.968Z,92.00
2023-04-10T02:29:37.648Z,91.35
2023-04-10T02:32:08.163Z,85.10
2023-04-10T02:34:36.846Z,85.80
2023-04-10T02:37:07.160Z,87.78
2023-04-10T02:39:37.272Z,91.90
2023-04-10T02:42:06.824Z,91.47
2023-04-10T02:44:35.845Z,90.65
2023-04-10T02:47:04.493Z,88.47
2023-04-10T02:49:35.839Z,82.90
2023-04-10T02:52:12.138Z,85.35
2023-04-10T02:54:40.919Z,90.75
2023-04-10T02:57:09.855Z,91.68
2023-04-10T02:59:43.666Z,93.05
2023-04-10T03:02:12.099Z,95.80
2023-04-10T03:04:41.159Z,100.22
2023-04-10T03:07:09.768Z,107.30
2023-04-10T03:09:39.832Z,106.13
2023-04-10T03:12:08.371Z,104.65
2023-04-10T03:14:37.747Z,102.82
2023-04-10T03:17:06.045Z,101.22
2023-04-10T03:19:35.191Z,110.47
2023-04-10T03:22:03.831Z,103.57
2023-04-10T03:24:33.163Z,102.20
2023-04-10T03:27:04.437Z,101.97
2023-04-10T03:29:32.854Z,93.70
2023-04-10T03:32:02.925Z,101.18
2023-04-10T03:34:32.096Z,99.05
2023-04-10T03:37:00.401Z,99.57
2023-04-10T03:39:28.333Z,94.70
2023-04-10T03:41:57.182Z,97.45
2023-04-10T03:44:26.475Z,95.18
2023-04-10T03:46:56.413Z,91.63
2023-04-10T03:49:25.651Z,103.50
2023-04-10T03:52:06.737Z,97.65
2023-04-10T03:54:37.860Z,102.32
2023-04-10T03:57:08.582Z,93.93
2023-04-10T03:59:38.908Z,87.88
2023-04-10T04:02:15.108Z,85.28
2023-04-10T04:04:44.583Z,90.47
2023-04-10T04:07:42.212Z,88.35
2023-04-10T04:10:21.967Z,82.28
2023-04-10T04:13:06.054Z,71.60
2023-04-10T04:15:54.048Z,75.55
2023-04-10T04:18:42.862Z,74.90
2023-04-10T04:21:20.376Z,71.05
2023-04-10T04:24:18.376Z,74.15
2023-04-10T04:27:02.972Z,67.18
2023-04-10T04:29:43.847Z,66.68
2023-04-10T04:32:40.677Z,71.60
2023-04-10T04:35:27.877Z,67.68
2023-04-10T04:38:29.705Z,66.03
2023-04-10T04:41:21.114Z,60.00
2023-04-10T05:20:42.832Z,67.28
2023-04-10T05:38:12.010Z,34.92
2023-04-10T05:40:49.268Z,32.90
2023-04-10T05:43:36.676Z,43.90
2023-04-10T05:46:34.385Z,53.42
2023-04-10T06:04:44.960Z,28.30
2023-04-10T06:07:17.901Z,30.75
2023-04-10T06:09:46.026Z,34.45
2023-04-10T06:12:14.345Z,35.10
2023-04-10T06:14:47.902Z,33.38
2023-04-10T06:17:21.715Z,32.00
2023-04-10T06:19:52.704Z,40.60
2023-04-10T06:22:25.445Z,37.80
2023-04-10T06:24:53.664Z,33.97
2023-04-10T06:27:24.123Z,35.97
2023-04-10T06:29:54.465Z,35.13
2023-04-10T06:32:46.742Z,40.45
2023-04-10T06:35:16.417Z,31.70
2023-04-10T06:37:48.875Z,39.00
2023-04-10T06:40:17.289Z,32.92
2023-04-10T06:42:45.659Z,39.72
2023-04-10T06:45:25.228Z,30.98
2023-04-10T06:47:56.805Z,25.45
2023-04-10T06:50:26.307Z,24.40
2023-04-10T06:52:56.740Z,26.80
2023-04-10T06:55:29.260Z,31.52
2023-04-10T06:58:18.291Z,36.05
2023-04-10T07:00:47.411Z,31.58
2023-04-10T07:03:16.691Z,29.65
2023-04-10T07:05:45.314Z,22.70
2023-04-10T07:08:13.319Z,22.02
2023-04-10T07:10:42.638Z,22.83
2023-04-10T07:13:11.050Z,19.85
2023-04-10T07:15:41.258Z,18.95
2023-04-10T07:18:13.803Z,21.48
2023-04-10T07:20:44.690Z,18.25
2023-04-10T07:23:22.871Z,20.48
2023-04-10T07:26:03.225Z,18.90
2023-04-10T07:31:18.186Z,19.35
2023-04-10T07:33:47.017Z,20.33
2023-04-10T07:36:36.471Z,23.77
2023-04-10T07:39:05.239Z,17.55
2023-04-10T07:41:39.324Z,16.33
2023-04-10T07:44:09.121Z,16.38
2023-04-10T07:46:39.232Z,13.95
2023-04-10T07:49:08.710Z,20.27
2023-04-10T07:51:37.508Z,13.48
2023-04-10T07:54:07.334Z,16.10
2023-04-10T07:56:38.861Z,13.65
2023-04-10T07:59:09.707Z,12.88
2023-04-10T08:01:38.587Z,19.48
2023-04-10T08:04:09.659Z,14.82
2023-04-10T08:06:40.919Z,18.20
2023-04-10T08:09:09.209Z,12.63
2023-04-10T08:11:39.900Z,10.68
2023-04-10T08:14:08.042Z,11.00
2023-04-10T08:16:36.635Z,8.98
2023-04-10T08:19:08.479Z,10.75
2023-04-10T08:21:45.146Z,11.27
2023-04-10T08:24:13.232Z,12.10
2023-04-10T08:27:01.575Z,13.73
2023-04-10T08:29:30.932Z,11.77
2023-04-10T08:32:01.277Z,8.18
2023-04-10T08:34:29.459Z,15.23
2023-04-10T08:37:05.468Z,12.00
2023-04-10T08:39:37.001Z,19.27
2023-04-10T08:42:06.796Z,12.27
2023-04-10T08:44:38.343Z,8.38
2023-04-10T08:47:06.928Z,11.20
2023-04-10T08:49:56.397Z,7.97
2023-04-10T08:52:27.478Z,9.55
2023-04-10T08:54:56.803Z,11.23
2023-04-10T08:57:28.567Z,13.77
2023-04-10T08:59:58.488Z,10.30
2023-04-10T09:02:27.166Z,11.30
2023-04-10T09:04:55.824Z,9.50
2023-04-10T09:07:24.284Z,7.38
2023-04-10T09:09:53.669Z,12.00
2023-04-10T09:12:27.776Z,9.52
2023-04-10T09:14:59.196Z,9.00
2023-04-10T09:17:30.519Z,47.65
2023-04-10T09:20:22.778Z,10.55
2023-04-10T09:22:51.502Z,11.48
2023-04-10T09:25:41.225Z,12.38
2023-04-10T09:28:10.184Z,10.32
2023-04-10T09:30:43.042Z,11.00
2023-04-10T09:33:24.444Z,10.75
2023-04-10T09:35:52.595Z,8.57
2023-04-10T09:38:23.764Z,7.15
2023-04-10T09:40:55.086Z,13.02
2023-04-10T09:43:27.386Z,8.10
2023-04-10T09:45:58.005Z,11.93
2023-04-10T09:48:29.404Z,14.27
2023-04-10T09:50:57.847Z,9.43
2023-04-10T09:53:27.729Z,8.95
2023-04-10T09:55:56.639Z,6.95
2023-04-10T09:58:34.935Z,5.75
2023-04-10T10:01:23.022Z,9.60
2023-04-10T10:03:53.353Z,8.98
2023-04-10T10:06:24.958Z,13.35
2023-04-10T10:09:05.935Z,10.95
2023-04-10T10:11:35.641Z,10.75
2023-04-10T10:14:11.283Z,7.18
2023-04-10T10:16:44.867Z,10.88
2023-04-10T10:19:28.580Z,10.70
2023-04-10T10:22:02.062Z,8.02
2023-04-10T10:24:31.903Z,16.15
2023-04-10T10:27:01.521Z,11.98
2023-04-10T10:29:32.515Z,9.63
2023-04-10T10:32:03.203Z,7.63
2023-04-10T10:34:37.869Z,8.23
2023-04-10T10:37:10.960Z,9.43
2023-04-10T10:40:13.288Z,11.05
2023-04-10T10:42:43.221Z,9.30
2023-04-10T10:45:14.251Z,12.05
2023-04-10T10:47:54.835Z,11.43
2023-04-10T10:50:24.949Z,11.52
2023-04-10T10:52:57.974Z,8.20
2023-04-10T10:55:27.741Z,9.75
2023-04-10T10:58:00.606Z,7.18
2023-04-10T11:01:24.792Z,22.55
2023-04-10T11:03:54.903Z,14.48
2023-04-10T11:06:44.695Z,8.90
2023-04-10T11:09:56.708Z,5.95
2023-04-10T11:12:34.810Z,7.18
2023-04-10T11:15:33.243Z,14.45
2023-04-10T11:18:03.491Z,10.07
2023-04-10T11:20:38.319Z,9.32
2023-04-10T11:23:11.390Z,3.75
2023-04-10T11:26:11.538Z,7.18
2023-04-10T11:28:45.640Z,12.23
2023-04-10T11:31:26.853Z,7.13
2023-04-10T11:34:02.533Z,8.75
2023-04-10T11:36:39.576Z,6.13
2023-04-10T11:39:11.680Z,11.55
2023-04-10T11:41:46.121Z,9.13
2023-04-10T11:44:52.674Z,9.13
2023-04-10T11:47:23.882Z,12.85
2023-04-10T11:50:00.950Z,9.25
2023-04-10T11:52:33.080Z,4.50
2023-04-10T11:55:04.803Z,11.38
2023-04-10T11:57:37.866Z,8.63
2023-04-10T12:00:32.703Z,4.95
2023-04-10T12:03:55.196Z,13.20
2023-04-10T12:06:28.168Z,10.00
2023-04-10T12:09:01.551Z,7.28
2023-04-10T12:11:30.853Z,11.60
2023-04-10T12:14:03.559Z,6.38
2023-04-10T12:16:33.893Z,8.00
2023-04-10T12:19:04.616Z,11.30
2023-04-10T12:21:39.318Z,7.40
2023-04-10T12:24:10.713Z,5.35
2023-04-10T12:26:51.959Z,5.78
2023-04-10T12:29:30.869Z,8.25
2023-04-10T12:32:20.180Z,8.63
2023-04-10T12:34:58.716Z,5.95
2023-04-10T12:37:52.577Z,6.30
2023-04-10T12:40:22.982Z,9.95
2023-04-10T12:42:53.160Z,7.25
2023-04-10T12:45:21.805Z,8.70
2023-04-10T12:47:54.930Z,6.50
2023-04-10T12:50:27.891Z,8.40
2023-04-10T12:53:22.063Z,11.35
2023-04-10T12:56:00.969Z,6.28
2023-04-10T12:58:50.161Z,11.45
2023-04-10T13:01:30.631Z,5.53
2023-04-10T13:03:59.409Z,9.30
2023-04-10T13:06:33.631Z,8.75
2023-04-10T13:09:11.407Z,6.60
2023-04-10T13:11:43.662Z,13.20
2023-04-10T13:14:14.676Z,10.07
2023-04-10T13:16:43.863Z,7.05
2023-04-10T13:19:17.489Z,5.85
2023-04-10T13:21:54.845Z,9.18
2023-04-10T13:24:46.332Z,5.53
2023-04-10T13:27:16.656Z,6.68
2023-04-10T13:29:56.958Z,6.97
2023-04-10T13:32:28.022Z,7.53
2023-04-10T13:34:59.700Z,5.80
2023-04-10T13:38:03.424Z,7.47
2023-04-10T13:40:34.321Z,6.97
2023-04-10T13:43:06.578Z,9.80
2023-04-10T13:45:35.498Z,8.90
2023-04-10T13:48:07.718Z,7.07
2023-04-10T13:50:49.389Z,7.25
2023-04-10T13:53:20.086Z,7.10
2023-04-10T13:55:51.960Z,7.63
2023-04-10T14:06:08.772Z,11.75
2023-04-10T14:08:42.737Z,14.30
2023-04-10T14:11:11.615Z,7.82
2023-04-10T14:13:39.730Z,7.72
2023-04-10T14:16:10.682Z,8.50
2023-04-10T14:19:12.247Z,10.15
2023-04-10T14:21:45.878Z,8.57
2023-04-10T14:24:16.556Z,9.75
2023-04-10T14:26:53.849Z,8.30
2023-04-10T14:29:36.078Z,6.43
2023-04-10T14:32:14.886Z,8.80
2023-04-10T14:34:44.008Z,8.82
2023-04-10T14:37:15.286Z,10.05
2023-04-10T14:39:44.283Z,9.25
2023-04-10T14:42:15.980Z,6.30
2023-04-10T14:44:44.107Z,9.95
2023-04-10T14:47:12.932Z,16.65
2023-04-10T14:50:49.578Z,11.85
2023-04-10T14:53:36.193Z,11.27
2023-04-10T15:06:06.072Z,11.05
2023-04-10T15:09:39.462Z,14.75
2023-04-10T15:12:16.904Z,9.88
2023-04-10T15:21:04.027Z,14.23
2023-04-10T15:27:23.344Z,11.65
2023-04-10T15:35:37.220Z,18.20
2023-04-10T15:38:51.714Z,19.85
2023-04-10T15:41:34.055Z,19.60
2023-04-10T16:09:29.852Z,21.63
2023-04-10T16:32:58.726Z,11.20
2023-04-10T16:36:05.538Z,11.68
2023-04-10T16:38:38.941Z,12.30
2023-04-10T16:41:07.527Z,16.98
2023-04-10T16:44:11.987Z,11.90
2023-04-10T16:46:51.622Z,13.18
2023-04-10T16:50:32.579Z,16.00
2023-04-10T16:58:54.205Z,14.48
2023-04-10T17:01:27.604Z,13.77
2023-04-10T17:04:21.912Z,17.38
2023-04-10T17:12:28.552Z,17.67
2023-04-10T17:15:05.313Z,19.60
2023-04-10T17:17:43.243Z,13.80
2023-04-10T17:20:20.479Z,16.00
2023-04-10T17:24:00.078Z,15.30
2023-04-10T17:26:37.001Z,23.08
2023-04-10T17:29:10.686Z,15.82
2023-04-10T17:31:46.026Z,17.83
2023-04-10T17:48:54.209Z,18.98
2023-04-10T18:10:25.590Z,16.55
2023-04-10T18:12:59.155Z,22.38
2023-04-10T18:15:37.186Z,19.10
2023-04-10T18:23:40.858Z,20.02
2023-04-10T18:27:37.873Z,17.05
2023-04-10T18:31:16.269Z,21.42
2023-04-10T18:34:56.749Z,22.27
2023-04-10T18:38:08.331Z,18.63
2023-04-10T18:46:32.972Z,22.83
2023-04-10T19:49:35.836Z,19.15
2023-04-10T19:52:06.988Z,21.40
2023-04-10T19:54:36.502Z,15.70
2023-04-10T19:57:05.831Z,12.40
2023-04-10T19:59:36.774Z,21.23
2023-04-10T20:02:05.247Z,21.92
2023-04-10T20:04:35.026Z,14.75
2023-04-10T20:07:05.555Z,12.95
2023-04-10T20:09:35.140Z,15.40
2023-04-10T20:12:04.587Z,15.00
2023-04-10T20:14:33.861Z,18.10
2023-04-10T20:17:02.648Z,15.57
2023-04-10T20:19:32.104Z,18.30
2023-04-10T20:22:02.479Z,14.80
2023-04-10T20:24:31.006Z,16.55
2023-04-10T20:27:04.073Z,19.23
2023-04-10T20:29:32.053Z,17.92
2023-04-10T20:32:00.180Z,17.25
2023-04-10T20:34:28.814Z,19.55
2023-04-10T20:36:58.880Z,16.42
2023-04-10T20:39:26.878Z,18.80
2023-04-10T20:41:54.842Z,16.92
2023-04-10T20:44:24.856Z,18.20
2023-04-10T20:46:53.295Z,20.52
2023-04-10T20:49:21.440Z,15.95
2023-04-10T20:51:49.425Z,15.07
2023-04-10T20:54:19.608Z,18.00
2023-04-10T20:56:47.773Z,20.88
2023-04-10T20:59:17.146Z,20.77
2023-04-10T21:01:45.968Z,22.92
2023-04-10T21:04:14.311Z,17.67
2023-04-10T21:06:42.415Z,23.02
2023-04-10T21:09:10.574Z,16.13
2023-04-10T21:11:38.768Z,15.63
2023-04-10T21:14:10.427Z,16.13
2023-04-10T21:16:42.535Z,14.35
2023-04-10T21:19:10.913Z,29.45
2023-04-10T21:21:46.634Z,17.52
2023-04-10T21:24:14.725Z,19.35
2023-04-10T21:26:44.126Z,17.13
2023-04-10T21:29:14.774Z,16.38
2023-04-10T21:31:45.202Z,20.55
2023-04-10T21:34:17.747Z,13.75
2023-04-10T21:36:49.941Z,13.77
2023-04-10T21:39:18.402Z,13.98
2023-04-10T21:41:46.751Z,13.70
2023-04-10T21:44:16.363Z,13.85
2023-04-10T21:46:49.202Z,16.20
2023-04-10T21:49:17.918Z,14.13
2023-04-10T21:51:46.053Z,19.00
2023-04-10T21:54:14.106Z,15.52
2023-04-10T21:56:43.891Z,17.13
2023-04-10T21:59:11.904Z,15.48
2023-04-10T22:01:43.945Z,12.60
2023-04-10T22:04:12.656Z,13.45
2023-04-10T22:06:42.388Z,14.20
2023-04-10T22:09:11.332Z,13.38
2023-04-10T22:11:39.381Z,14.18
2023-04-10T22:14:18.006Z,14.50
2023-04-10T22:16:47.764Z,16.35
2023-04-10T22:19:15.946Z,13.38
2023-04-10T22:21:44.546Z,15.50
2023-04-10T22:24:12.920Z,15.00
2023-04-10T22:26:42.337Z,15.57
2023-04-10T22:29:13.941Z,12.65
2023-04-10T22:31:42.428Z,13.95
2023-04-10T22:34:11.044Z,13.85
2023-04-10T22:36:40.172Z,14.68
2023-04-10T22:39:08.241Z,14.57
2023-04-10T22:41:38.914Z,13.85
2023-04-10T22:44:07.584Z,12.82
2023-04-10T22:46:41.053Z,18.55
2023-04-10T22:49:09.359Z,15.25
2023-04-10T22:51:37.319Z,11.48
2023-04-10T22:54:06.368Z,14.60
2023-04-10T22:56:35.370Z,13.45
2023-04-10T22:59:09.683Z,13.75
2023-04-10T23:01:38.576Z,11.55
2023-04-10T23:04:06.710Z,18.77
2023-04-10T23:06:35.810Z,14.45
2023-04-10T23:09:05.381Z,19.45
2023-04-10T23:11:36.849Z,20.48
2023-04-10T23:14:04.902Z,19.25
2023-04-10T23:16:33.920Z,18.10
2023-04-10T23:19:02.102Z,13.75
2023-04-10T23:21:32.736Z,16.20
2023-04-10T23:24:01.505Z,18.27
2023-04-10T23:26:32.416Z,16.35
2023-04-10T23:29:01.562Z,12.63
2023-04-10T23:31:30.168Z,19.75
2023-04-10T23:33:58.479Z,15.82
2023-04-10T23:36:27.438Z,17.23
2023-04-10T23:38:55.824Z,20.75
2023-04-10T23:41:24.166Z,20.48
2023-04-10T23:43:52.662Z,17.13
2023-04-10T23:46:21.326Z,19.20
2023-04-10T23:48:54.991Z,18.52
2023-04-10T23:51:24.981Z,18.02
2023-04-10T23:53:54.200Z,16.85
2023-04-10T23:56:29.170Z,18.23
2023-04-10T23:58:57.413Z,20.55
